Kensington, Ohio
Current Conditions -  °F | °C
As of 1:51 AM on Monday 24 Nov 2014 (Local Time) from KCAK Reporting Station
Overcast Overcast  
Wind Chill: 57°   Ceiling: 4400
Heat Index: 57°   Visibility: 10mi
Dew Point: 52°   Wind: 20mph
Humidity: 83%   Direction: 180°S
Pressure: 29.31"   Gusts: NA
Location:  40.74°N, 80.96°W
Report Text: KCAK 240651Z 18017KT 10SM FEW023 BKN044 OVC055 14/11 A2931 RMK AO2 PK WND 18032/0617 SLP922 P0001 T01390111 $
Loading
Personal Weather Stations






























Interactive Weather Map New forecast layout! Learn more

10-Day Weather Forecast

Advertisements
Track Severe Weather on mobile